Terminal Aerodrome Forecast
Issued by NWS Corpus Christi, TX

Home | Current Version | Previous Version | Text Only | Print | Product List | Glossary On
Versions: 1 2 3 4 5 6 7 8 9 10 11 12 13 14 15 16 17
931
FTUS44 KCRP 291132
TAFCRP
TAF
KCRP 291132Z 2912/3012 08006KT P6SM SCT015 BKN025
     FM291500 14015G20KT P6SM BKN025
     FM292000 12018G25KT P6SM SCT035 BKN250
     FM300300 14010KT P6SM SCT020
      TEMPO 3010/3012 BKN020=

USA.gov is the U.S. government's official web portal to all federal, state and local government web resources and services.